sensor_id;sensor_type;location;lat;lon;timestamp;P1;durP1;ratioP1;P2;durP2;ratioP2
80307;SDS011;69616;43.522;1.348;2023-05-10T00:01:26;21.37;;;3.13;;
80307;SDS011;69616;43.522;1.348;2023-05-10T00:03:52;19.55;;;3.20;;
80307;SDS011;69616;43.522;1.348;2023-05-10T00:06:17;20.53;;;2.97;;
80307;SDS011;69616;43.522;1.348;2023-05-10T00:08:43;23.00;;;3.33;;
80307;SDS011;69616;43.522;1.348;2023-05-10T00:11:08;17.13;;;3.63;;
80307;SDS011;69616;43.522;1.348;2023-05-10T00:13:34;21.23;;;2.75;;
80307;SDS011;69616;43.522;1.348;2023-05-10T00:15:59;19.93;;;2.73;;
80307;SDS011;69616;43.522;1.348;2023-05-10T00:18:24;16.53;;;2.67;;
80307;SDS011;69616;43.522;1.348;2023-05-10T00:20:50;16.17;;;2.70;;
80307;SDS011;69616;43.522;1.348;2023-05-10T00:23:15;21.30;;;2.40;;
80307;SDS011;69616;43.522;1.348;2023-05-10T00:25:41;22.07;;;2.60;;
80307;SDS011;69616;43.522;1.348;2023-05-10T00:28:06;26.37;;;2.90;;
80307;SDS011;69616;43.522;1.348;2023-05-10T00:30:31;21.37;;;2.70;;
80307;SDS011;69616;43.522;1.348;2023-05-10T00:32:57;18.67;;;2.90;;
80307;SDS011;69616;43.522;1.348;2023-05-10T00:35:22;22.17;;;2.67;;
80307;SDS011;69616;43.522;1.348;2023-05-10T00:37:48;18.57;;;2.60;;
80307;SDS011;69616;43.522;1.348;2023-05-10T00:40:13;19.40;;;3.20;;
80307;SDS011;69616;43.522;1.348;2023-05-10T00:42:39;22.08;;;3.03;;
80307;SDS011;69616;43.522;1.348;2023-05-10T00:45:05;18.53;;;2.50;;
80307;SDS011;69616;43.522;1.348;2023-05-10T00:47:31;20.23;;;2.80;;
80307;SDS011;69616;43.522;1.348;2023-05-10T00:49:57;26.25;;;2.50;;
80307;SDS011;69616;43.522;1.348;2023-05-10T00:52:25;21.83;;;2.95;;
80307;SDS011;69616;43.522;1.348;2023-05-10T00:54:51;20.65;;;2.78;;
80307;SDS011;69616;43.522;1.348;2023-05-10T00:57:17;18.67;;;2.50;;
80307;SDS011;69616;43.522;1.348;2023-05-10T00:59:42;18.53;;;2.60;;
80307;SDS011;69616;43.522;1.348;2023-05-10T01:02:08;15.90;;;2.45;;
80307;SDS011;69616;43.522;1.348;2023-05-10T01:04:34;15.13;;;2.40;;
80307;SDS011;69616;43.522;1.348;2023-05-10T01:07:00;17.90;;;2.88;;
80307;SDS011;69616;43.522;1.348;2023-05-10T01:09:26;20.87;;;2.93;;
80307;SDS011;69616;43.522;1.348;2023-05-10T01:11:52;13.02;;;2.25;;
80307;SDS011;69616;43.522;1.348;2023-05-10T01:14:19;20.80;;;2.88;;
80307;SDS011;69616;43.522;1.348;2023-05-10T01:16:45;18.67;;;3.00;;
80307;SDS011;69616;43.522;1.348;2023-05-10T01:19:21;21.17;;;2.40;;
80307;SDS011;69616;43.522;1.348;2023-05-10T01:33:19;15.73;;;1.70;;
80307;SDS011;69616;43.522;1.348;2023-05-10T01:41:17;16.80;;;1.75;;
80307;SDS011;69616;43.522;1.348;2023-05-10T01:46:27;13.43;;;2.30;;
80307;SDS011;69616;43.522;1.348;2023-05-10T01:48:58;12.13;;;1.70;;
80307;SDS011;69616;43.522;1.348;2023-05-10T01:51:29;15.05;;;2.35;;
80307;SDS011;69616;43.522;1.348;2023-05-10T01:54:01;14.05;;;1.63;;
80307;SDS011;69616;43.522;1.348;2023-05-10T01:56:29;16.48;;;2.25;;
80307;SDS011;69616;43.522;1.348;2023-05-10T01:58:58;14.53;;;1.93;;
80307;SDS011;69616;43.522;1.348;2023-05-10T02:01:25;16.63;;;1.77;;
80307;SDS011;69616;43.522;1.348;2023-05-10T02:03:52;14.93;;;1.98;;
80307;SDS011;69616;43.522;1.348;2023-05-10T02:06:20;17.23;;;2.55;;
80307;SDS011;69616;43.522;1.348;2023-05-10T02:08:49;14.48;;;1.70;;
80307;SDS011;69616;43.522;1.348;2023-05-10T02:11:16;15.60;;;1.73;;
80307;SDS011;69616;43.522;1.348;2023-05-10T02:13:43;13.30;;;2.08;;
80307;SDS011;69616;43.522;1.348;2023-05-10T02:16:12;13.07;;;2.05;;
80307;SDS011;69616;43.522;1.348;2023-05-10T02:18:38;18.27;;;2.38;;
80307;SDS011;69616;43.522;1.348;2023-05-10T02:21:06;17.67;;;2.47;;
80307;SDS011;69616;43.522;1.348;2023-05-10T02:23:33;16.00;;;1.70;;
80307;SDS011;69616;43.522;1.348;2023-05-10T02:26:00;14.98;;;2.30;;
80307;SDS011;69616;43.522;1.348;2023-05-10T02:28:26;17.45;;;2.40;;
80307;SDS011;69616;43.522;1.348;2023-05-10T02:30:54;19.77;;;2.08;;
80307;SDS011;69616;43.522;1.348;2023-05-10T02:33:21;17.63;;;1.90;;
80307;SDS011;69616;43.522;1.348;2023-05-10T02:35:47;16.47;;;2.00;;
80307;SDS011;69616;43.522;1.348;2023-05-10T02:38:14;21.60;;;2.42;;
80307;SDS011;69616;43.522;1.348;2023-05-10T02:40:41;15.57;;;2.50;;
80307;SDS011;69616;43.522;1.348;2023-05-10T02:43:08;13.60;;;1.90;;
80307;SDS011;69616;43.522;1.348;2023-05-10T02:45:36;15.25;;;2.20;;
80307;SDS011;69616;43.522;1.348;2023-05-10T02:48:03;13.07;;;1.90;;
80307;SDS011;69616;43.522;1.348;2023-05-10T02:50:30;15.65;;;2.97;;
80307;SDS011;69616;43.522;1.348;2023-05-10T02:53:01;17.20;;;2.40;;
80307;SDS011;69616;43.522;1.348;2023-05-10T02:55:33;18.92;;;2.30;;
80307;SDS011;69616;43.522;1.348;2023-05-10T02:58:02;17.38;;;2.10;;
80307;SDS011;69616;43.522;1.348;2023-05-10T03:00:28;14.27;;;2.90;;
80307;SDS011;69616;43.522;1.348;2023-05-10T03:02:54;13.85;;;2.20;;
80307;SDS011;69616;43.522;1.348;2023-05-10T03:05:20;20.20;;;3.03;;
80307;SDS011;69616;43.522;1.348;2023-05-10T03:07:46;17.90;;;2.33;;
80307;SDS011;69616;43.522;1.348;2023-05-10T03:10:12;18.07;;;2.77;;
80307;SDS011;69616;43.522;1.348;2023-05-10T03:18:15;15.50;;;2.93;;
80307;SDS011;69616;43.522;1.348;2023-05-10T03:20:48;17.35;;;2.95;;
80307;SDS011;69616;43.522;1.348;2023-05-10T03:25:51;17.33;;;3.17;;
80307;SDS011;69616;43.522;1.348;2023-05-10T03:28:18;19.25;;;2.83;;
80307;SDS011;69616;43.522;1.348;2023-05-10T03:30:45;16.10;;;2.50;;
80307;SDS011;69616;43.522;1.348;2023-05-10T03:33:11;17.73;;;2.78;;
80307;SDS011;69616;43.522;1.348;2023-05-10T03:35:38;17.27;;;2.60;;
80307;SDS011;69616;43.522;1.348;2023-05-10T03:38:03;14.55;;;2.05;;
80307;SDS011;69616;43.522;1.348;2023-05-10T03:40:29;16.90;;;2.40;;
80307;SDS011;69616;43.522;1.348;2023-05-10T03:42:56;15.57;;;2.58;;
80307;SDS011;69616;43.522;1.348;2023-05-10T03:45:22;18.17;;;2.00;;
80307;SDS011;69616;43.522;1.348;2023-05-10T03:47:47;16.07;;;2.27;;
80307;SDS011;69616;43.522;1.348;2023-05-10T03:50:12;14.00;;;1.67;;
80307;SDS011;69616;43.522;1.348;2023-05-10T03:52:38;15.25;;;1.88;;
80307;SDS011;69616;43.522;1.348;2023-05-10T03:55:06;15.57;;;1.87;;
80307;SDS011;69616;43.522;1.348;2023-05-10T03:57:32;16.25;;;2.00;;
80307;SDS011;69616;43.522;1.348;2023-05-10T03:59:58;13.98;;;1.65;;
80307;SDS011;69616;43.522;1.348;2023-05-10T04:02:23;12.80;;;1.57;;
80307;SDS011;69616;43.522;1.348;2023-05-10T04:04:49;18.20;;;2.33;;
80307;SDS011;69616;43.522;1.348;2023-05-10T04:07:14;15.03;;;1.90;;
80307;SDS011;69616;43.522;1.348;2023-05-10T04:09:40;13.57;;;2.03;;
80307;SDS011;69616;43.522;1.348;2023-05-10T04:12:05;14.40;;;2.20;;
80307;SDS011;69616;43.522;1.348;2023-05-10T04:14:31;12.75;;;1.48;;
80307;SDS011;69616;43.522;1.348;2023-05-10T04:16:56;11.30;;;1.70;;
80307;SDS011;69616;43.522;1.348;2023-05-10T04:19:22;11.80;;;1.97;;
80307;SDS011;69616;43.522;1.348;2023-05-10T04:21:47;20.48;;;2.30;;
80307;SDS011;69616;43.522;1.348;2023-05-10T04:24:13;12.87;;;1.53;;
80307;SDS011;69616;43.522;1.348;2023-05-10T04:26:38;18.00;;;2.10;;
80307;SDS011;69616;43.522;1.348;2023-05-10T04:29:04;15.90;;;2.00;;
80307;SDS011;69616;43.522;1.348;2023-05-10T04:31:30;16.83;;;2.73;;
80307;SDS011;69616;43.522;1.348;2023-05-10T04:33:55;16.27;;;1.47;;
80307;SDS011;69616;43.522;1.348;2023-05-10T04:36:20;13.87;;;1.70;;
80307;SDS011;69616;43.522;1.348;2023-05-10T04:38:46;19.15;;;2.42;;
80307;SDS011;69616;43.522;1.348;2023-05-10T04:41:11;16.83;;;1.60;;
80307;SDS011;69616;43.522;1.348;2023-05-10T04:43:37;17.33;;;1.80;;
80307;SDS011;69616;43.522;1.348;2023-05-10T04:46:03;16.02;;;1.77;;
80307;SDS011;69616;43.522;1.348;2023-05-10T04:48:29;11.00;;;1.52;;
80307;SDS011;69616;43.522;1.348;2023-05-10T04:50:55;15.87;;;2.10;;
80307;SDS011;69616;43.522;1.348;2023-05-10T04:53:21;17.60;;;2.10;;
80307;SDS011;69616;43.522;1.348;2023-05-10T04:55:46;24.80;;;2.50;;
80307;SDS011;69616;43.522;1.348;2023-05-10T04:58:12;14.80;;;2.15;;
80307;SDS011;69616;43.522;1.348;2023-05-10T05:00:38;22.03;;;1.90;;
80307;SDS011;69616;43.522;1.348;2023-05-10T05:03:04;19.73;;;3.00;;
80307;SDS011;69616;43.522;1.348;2023-05-10T05:05:30;23.45;;;2.08;;
80307;SDS011;69616;43.522;1.348;2023-05-10T05:07:55;15.47;;;2.30;;
80307;SDS011;69616;43.522;1.348;2023-05-10T05:10:21;16.90;;;2.27;;
80307;SDS011;69616;43.522;1.348;2023-05-10T05:12:46;18.50;;;2.37;;
80307;SDS011;69616;43.522;1.348;2023-05-10T05:15:12;17.93;;;1.97;;
80307;SDS011;69616;43.522;1.348;2023-05-10T05:17:37;20.53;;;1.97;;
80307;SDS011;69616;43.522;1.348;2023-05-10T05:20:03;18.90;;;2.00;;
80307;SDS011;69616;43.522;1.348;2023-05-10T05:22:29;17.55;;;1.80;;
80307;SDS011;69616;43.522;1.348;2023-05-10T05:24:54;15.80;;;2.00;;
80307;SDS011;69616;43.522;1.348;2023-05-10T05:27:20;19.75;;;2.30;;
80307;SDS011;69616;43.522;1.348;2023-05-10T05:29:49;13.80;;;1.98;;
80307;SDS011;69616;43.522;1.348;2023-05-10T05:32:15;16.65;;;2.15;;
80307;SDS011;69616;43.522;1.348;2023-05-10T05:34:40;18.77;;;2.30;;
80307;SDS011;69616;43.522;1.348;2023-05-10T05:37:05;13.60;;;2.20;;
80307;SDS011;69616;43.522;1.348;2023-05-10T05:39:31;10.13;;;1.60;;
80307;SDS011;69616;43.522;1.348;2023-05-10T05:41:56;18.60;;;1.87;;
80307;SDS011;69616;43.522;1.348;2023-05-10T05:44:21;16.27;;;2.00;;
80307;SDS011;69616;43.522;1.348;2023-05-10T05:46:47;20.20;;;2.10;;
80307;SDS011;69616;43.522;1.348;2023-05-10T05:49:12;17.50;;;2.00;;
80307;SDS011;69616;43.522;1.348;2023-05-10T05:51:38;17.17;;;2.30;;
80307;SDS011;69616;43.522;1.348;2023-05-10T05:54:03;23.63;;;2.67;;
80307;SDS011;69616;43.522;1.348;2023-05-10T05:56:29;23.57;;;2.43;;
80307;SDS011;69616;43.522;1.348;2023-05-10T05:58:55;21.02;;;2.40;;
80307;SDS011;69616;43.522;1.348;2023-05-10T06:01:20;20.60;;;2.63;;
80307;SDS011;69616;43.522;1.348;2023-05-10T06:03:46;21.50;;;2.22;;
80307;SDS011;69616;43.522;1.348;2023-05-10T06:06:11;19.37;;;1.87;;
80307;SDS011;69616;43.522;1.348;2023-05-10T06:08:37;17.20;;;1.80;;
80307;SDS011;69616;43.522;1.348;2023-05-10T06:11:02;22.10;;;2.03;;
80307;SDS011;69616;43.522;1.348;2023-05-10T06:13:29;13.60;;;1.98;;
80307;SDS011;69616;43.522;1.348;2023-05-10T06:15:57;18.95;;;2.05;;
80307;SDS011;69616;43.522;1.348;2023-05-10T06:18:23;18.20;;;2.40;;
80307;SDS011;69616;43.522;1.348;2023-05-10T06:20:49;17.80;;;2.10;;
80307;SDS011;69616;43.522;1.348;2023-05-10T06:23:14;17.03;;;2.17;;
80307;SDS011;69616;43.522;1.348;2023-05-10T06:25:40;15.25;;;2.25;;
80307;SDS011;69616;43.522;1.348;2023-05-10T06:28:05;17.13;;;1.93;;
80307;SDS011;69616;43.522;1.348;2023-05-10T06:30:31;14.67;;;2.30;;
80307;SDS011;69616;43.522;1.348;2023-05-10T06:32:56;17.93;;;2.20;;
80307;SDS011;69616;43.522;1.348;2023-05-10T06:35:22;18.48;;;2.03;;
80307;SDS011;69616;43.522;1.348;2023-05-10T06:37:47;19.57;;;2.37;;
80307;SDS011;69616;43.522;1.348;2023-05-10T06:40:13;17.02;;;2.67;;
80307;SDS011;69616;43.522;1.348;2023-05-10T06:42:38;23.73;;;2.40;;
80307;SDS011;69616;43.522;1.348;2023-05-10T06:45:04;17.77;;;1.97;;
80307;SDS011;69616;43.522;1.348;2023-05-10T06:47:30;19.25;;;1.98;;
80307;SDS011;69616;43.522;1.348;2023-05-10T06:49:55;15.60;;;1.70;;
80307;SDS011;69616;43.522;1.348;2023-05-10T06:52:21;14.57;;;1.77;;
80307;SDS011;69616;43.522;1.348;2023-05-10T06:54:46;15.13;;;1.87;;
80307;SDS011;69616;43.522;1.348;2023-05-10T06:57:11;18.13;;;1.50;;
80307;SDS011;69616;43.522;1.348;2023-05-10T06:59:37;14.00;;;1.70;;
80307;SDS011;69616;43.522;1.348;2023-05-10T07:02:02;19.17;;;2.03;;
80307;SDS011;69616;43.522;1.348;2023-05-10T07:04:28;20.77;;;1.95;;
80307;SDS011;69616;43.522;1.348;2023-05-10T07:06:53;16.93;;;2.13;;
80307;SDS011;69616;43.522;1.348;2023-05-10T07:09:19;18.70;;;2.33;;
80307;SDS011;69616;43.522;1.348;2023-05-10T07:11:44;18.43;;;2.13;;
80307;SDS011;69616;43.522;1.348;2023-05-10T07:14:10;16.25;;;1.83;;
80307;SDS011;69616;43.522;1.348;2023-05-10T07:16:35;17.93;;;1.90;;
80307;SDS011;69616;43.522;1.348;2023-05-10T07:19:01;15.47;;;2.53;;
80307;SDS011;69616;43.522;1.348;2023-05-10T07:21:27;16.02;;;2.25;;
80307;SDS011;69616;43.522;1.348;2023-05-10T07:23:53;17.20;;;2.33;;
80307;SDS011;69616;43.522;1.348;2023-05-10T07:26:19;25.40;;;2.97;;
80307;SDS011;69616;43.522;1.348;2023-05-10T07:28:45;15.10;;;2.00;;
80307;SDS011;69616;43.522;1.348;2023-05-10T07:31:11;18.58;;;2.17;;
80307;SDS011;69616;43.522;1.348;2023-05-10T07:33:37;19.55;;;2.83;;
80307;SDS011;69616;43.522;1.348;2023-05-10T07:36:02;21.70;;;2.57;;
80307;SDS011;69616;43.522;1.348;2023-05-10T07:38:28;14.23;;;1.70;;
80307;SDS011;69616;43.522;1.348;2023-05-10T07:40:53;17.10;;;2.07;;
80307;SDS011;69616;43.522;1.348;2023-05-10T07:43:18;20.33;;;2.33;;
80307;SDS011;69616;43.522;1.348;2023-05-10T07:45:44;11.53;;;2.23;;
80307;SDS011;69616;43.522;1.348;2023-05-10T07:48:09;18.83;;;2.10;;
80307;SDS011;69616;43.522;1.348;2023-05-10T07:50:35;19.90;;;2.57;;
80307;SDS011;69616;43.522;1.348;2023-05-10T07:53:00;17.97;;;2.00;;
80307;SDS011;69616;43.522;1.348;2023-05-10T07:55:25;14.85;;;1.80;;
80307;SDS011;69616;43.522;1.348;2023-05-10T07:57:51;18.93;;;2.07;;
80307;SDS011;69616;43.522;1.348;2023-05-10T08:00:17;18.57;;;2.10;;
80307;SDS011;69616;43.522;1.348;2023-05-10T08:02:43;17.92;;;1.63;;
80307;SDS011;69616;43.522;1.348;2023-05-10T08:05:09;14.20;;;2.03;;
80307;SDS011;69616;43.522;1.348;2023-05-10T08:07:35;20.75;;;2.53;;
80307;SDS011;69616;43.522;1.348;2023-05-10T08:10:01;16.23;;;2.40;;
80307;SDS011;69616;43.522;1.348;2023-05-10T08:12:27;15.18;;;1.95;;
80307;SDS011;69616;43.522;1.348;2023-05-10T08:14:52;18.60;;;1.93;;
80307;SDS011;69616;43.522;1.348;2023-05-10T08:17:18;17.33;;;1.67;;
80307;SDS011;69616;43.522;1.348;2023-05-10T08:19:43;14.60;;;2.20;;
80307;SDS011;69616;43.522;1.348;2023-05-10T08:22:08;13.07;;;1.90;;
80307;SDS011;69616;43.522;1.348;2023-05-10T08:24:34;15.50;;;2.30;;
80307;SDS011;69616;43.522;1.348;2023-05-10T08:27:03;14.85;;;1.65;;
80307;SDS011;69616;43.522;1.348;2023-05-10T08:29:31;18.05;;;2.42;;
80307;SDS011;69616;43.522;1.348;2023-05-10T08:31:56;19.90;;;1.87;;
80307;SDS011;69616;43.522;1.348;2023-05-10T08:34:22;15.07;;;1.20;;
80307;SDS011;69616;43.522;1.348;2023-05-10T08:36:47;20.33;;;2.20;;
80307;SDS011;69616;43.522;1.348;2023-05-10T08:39:12;11.88;;;1.63;;
80307;SDS011;69616;43.522;1.348;2023-05-10T08:41:39;18.60;;;2.30;;
80307;SDS011;69616;43.522;1.348;2023-05-10T08:44:05;14.02;;;2.03;;
80307;SDS011;69616;43.522;1.348;2023-05-10T08:46:33;12.45;;;1.40;;
80307;SDS011;69616;43.522;1.348;2023-05-10T08:49:01;17.98;;;1.95;;
80307;SDS011;69616;43.522;1.348;2023-05-10T08:51:29;14.93;;;2.13;;
80307;SDS011;69616;43.522;1.348;2023-05-10T08:54:01;11.77;;;1.38;;
80307;SDS011;69616;43.522;1.348;2023-05-10T08:56:27;13.43;;;1.60;;
80307;SDS011;69616;43.522;1.348;2023-05-10T08:58:53;15.23;;;1.60;;
80307;SDS011;69616;43.522;1.348;2023-05-10T09:01:18;9.70;;;1.33;;
80307;SDS011;69616;43.522;1.348;2023-05-10T09:03:46;12.70;;;1.60;;
80307;SDS011;69616;43.522;1.348;2023-05-10T09:06:13;10.65;;;1.50;;
80307;SDS011;69616;43.522;1.348;2023-05-10T09:08:38;16.83;;;1.30;;
80307;SDS011;69616;43.522;1.348;2023-05-10T09:11:06;10.25;;;1.63;;
80307;SDS011;69616;43.522;1.348;2023-05-10T09:13:33;14.33;;;1.90;;
80307;SDS011;69616;43.522;1.348;2023-05-10T09:16:00;13.57;;;2.10;;
80307;SDS011;69616;43.522;1.348;2023-05-10T09:18:26;13.43;;;1.52;;
80307;SDS011;69616;43.522;1.348;2023-05-10T09:20:51;10.03;;;1.20;;
80307;SDS011;69616;43.522;1.348;2023-05-10T09:23:16;12.63;;;1.27;;
80307;SDS011;69616;43.522;1.348;2023-05-10T09:25:42;14.07;;;2.13;;
80307;SDS011;69616;43.522;1.348;2023-05-10T09:28:08;16.23;;;2.10;;
80307;SDS011;69616;43.522;1.348;2023-05-10T09:30:34;11.65;;;1.23;;
80307;SDS011;69616;43.522;1.348;2023-05-10T09:33:00;13.00;;;1.98;;
80307;SDS011;69616;43.522;1.348;2023-05-10T09:35:27;12.55;;;1.90;;
80307;SDS011;69616;43.522;1.348;2023-05-10T09:37:55;12.43;;;1.67;;
80307;SDS011;69616;43.522;1.348;2023-05-10T09:40:22;13.97;;;1.90;;
80307;SDS011;69616;43.522;1.348;2023-05-10T09:43:02;13.73;;;1.60;;
80307;SDS011;69616;43.522;1.348;2023-05-10T09:45:31;10.93;;;1.75;;
80307;SDS011;69616;43.522;1.348;2023-05-10T09:47:57;12.68;;;1.80;;
80307;SDS011;69616;43.522;1.348;2023-05-10T09:50:24;9.75;;;1.33;;
80307;SDS011;69616;43.522;1.348;2023-05-10T09:53:00;12.00;;;1.57;;
80307;SDS011;69616;43.522;1.348;2023-05-10T09:55:44;17.73;;;2.20;;
80307;SDS011;69616;43.522;1.348;2023-05-10T09:58:11;11.93;;;1.20;;
80307;SDS011;69616;43.522;1.348;2023-05-10T10:00:39;14.65;;;1.63;;
80307;SDS011;69616;43.522;1.348;2023-05-10T10:03:05;9.18;;;1.38;;
80307;SDS011;69616;43.522;1.348;2023-05-10T10:05:34;6.83;;;1.10;;
80307;SDS011;69616;43.522;1.348;2023-05-10T10:08:01;7.75;;;1.05;;
80307;SDS011;69616;43.522;1.348;2023-05-10T10:10:28;6.35;;;0.90;;
80307;SDS011;69616;43.522;1.348;2023-05-10T10:12:54;6.20;;;0.85;;
80307;SDS011;69616;43.522;1.348;2023-05-10T10:15:20;6.03;;;0.67;;
80307;SDS011;69616;43.522;1.348;2023-05-10T10:17:46;7.28;;;0.73;;
80307;SDS011;69616;43.522;1.348;2023-05-10T10:20:14;5.20;;;1.05;;
80307;SDS011;69616;43.522;1.348;2023-05-10T10:22:40;6.47;;;0.70;;
80307;SDS011;69616;43.522;1.348;2023-05-10T10:25:06;3.90;;;0.50;;
80307;SDS011;69616;43.522;1.348;2023-05-10T10:33:06;10.30;;;1.42;;
80307;SDS011;69616;43.522;1.348;2023-05-10T10:35:52;11.17;;;1.47;;
80307;SDS011;69616;43.522;1.348;2023-05-10T10:38:19;10.85;;;1.30;;
80307;SDS011;69616;43.522;1.348;2023-05-10T10:40:45;7.57;;;1.00;;
80307;SDS011;69616;43.522;1.348;2023-05-10T10:43:44;11.03;;;1.10;;
80307;SDS011;69616;43.522;1.348;2023-05-10T10:46:09;8.68;;;1.25;;
80307;SDS011;69616;43.522;1.348;2023-05-10T10:48:35;10.23;;;1.40;;
80307;SDS011;69616;43.522;1.348;2023-05-10T10:51:00;11.03;;;1.10;;
80307;SDS011;69616;43.522;1.348;2023-05-10T10:53:27;9.75;;;1.30;;
80307;SDS011;69616;43.522;1.348;2023-05-10T10:56:05;10.87;;;1.33;;
80307;SDS011;69616;43.522;1.348;2023-05-10T10:58:35;8.60;;;1.30;;
80307;SDS011;69616;43.522;1.348;2023-05-10T11:01:11;9.27;;;1.70;;
80307;SDS011;69616;43.522;1.348;2023-05-10T11:03:38;7.95;;;1.20;;
80307;SDS011;69616;43.522;1.348;2023-05-10T11:06:04;8.37;;;1.30;;
80307;SDS011;69616;43.522;1.348;2023-05-10T11:13:34;11.03;;;1.20;;
80307;SDS011;69616;43.522;1.348;2023-05-10T11:16:17;11.73;;;1.52;;
80307;SDS011;69616;43.522;1.348;2023-05-10T11:18:57;9.00;;;1.17;;
80307;SDS011;69616;43.522;1.348;2023-05-10T11:21:31;8.98;;;1.20;;
80307;SDS011;69616;43.522;1.348;2023-05-10T11:23:58;10.95;;;1.60;;
80307;SDS011;69616;43.522;1.348;2023-05-10T11:26:26;10.50;;;1.20;;
80307;SDS011;69616;43.522;1.348;2023-05-10T11:28:56;6.95;;;1.05;;
80307;SDS011;69616;43.522;1.348;2023-05-10T11:31:23;6.30;;;0.95;;
80307;SDS011;69616;43.522;1.348;2023-05-10T11:33:52;5.82;;;0.90;;
80307;SDS011;69616;43.522;1.348;2023-05-10T11:36:23;5.40;;;1.00;;
80307;SDS011;69616;43.522;1.348;2023-05-10T11:38:50;7.30;;;0.80;;
80307;SDS011;69616;43.522;1.348;2023-05-10T11:41:17;7.68;;;0.70;;
80307;SDS011;69616;43.522;1.348;2023-05-10T11:43:45;4.97;;;0.85;;
80307;SDS011;69616;43.522;1.348;2023-05-10T11:46:12;8.20;;;0.90;;
80307;SDS011;69616;43.522;1.348;2023-05-10T11:48:38;5.63;;;0.80;;
80307;SDS011;69616;43.522;1.348;2023-05-10T11:51:04;6.63;;;0.83;;
80307;SDS011;69616;43.522;1.348;2023-05-10T11:53:31;5.38;;;1.08;;
80307;SDS011;69616;43.522;1.348;2023-05-10T11:56:07;9.50;;;0.90;;
80307;SDS011;69616;43.522;1.348;2023-05-10T11:58:34;5.35;;;0.90;;
80307;SDS011;69616;43.522;1.348;2023-05-10T12:01:01;6.68;;;0.88;;
80307;SDS011;69616;43.522;1.348;2023-05-10T12:03:27;6.87;;;0.80;;
80307;SDS011;69616;43.522;1.348;2023-05-10T12:05:54;6.57;;;0.85;;
80307;SDS011;69616;43.522;1.348;2023-05-10T12:08:21;7.95;;;0.73;;
80307;SDS011;69616;43.522;1.348;2023-05-10T12:10:48;8.88;;;0.98;;
80307;SDS011;69616;43.522;1.348;2023-05-10T12:13:14;8.50;;;1.20;;
80307;SDS011;69616;43.522;1.348;2023-05-10T12:15:40;10.43;;;1.30;;
80307;SDS011;69616;43.522;1.348;2023-05-10T12:18:14;10.23;;;1.30;;
80307;SDS011;69616;43.522;1.348;2023-05-10T12:20:40;10.33;;;1.20;;
80307;SDS011;69616;43.522;1.348;2023-05-10T12:23:07;7.45;;;1.00;;
80307;SDS011;69616;43.522;1.348;2023-05-10T12:25:34;7.13;;;1.08;;
80307;SDS011;69616;43.522;1.348;2023-05-10T12:28:05;9.52;;;1.38;;
80307;SDS011;69616;43.522;1.348;2023-05-10T12:30:33;7.53;;;1.05;;
80307;SDS011;69616;43.522;1.348;2023-05-10T12:33:01;8.43;;;0.97;;
80307;SDS011;69616;43.522;1.348;2023-05-10T12:35:31;5.68;;;0.88;;
80307;SDS011;69616;43.522;1.348;2023-05-10T12:37:57;3.63;;;0.60;;
80307;SDS011;69616;43.522;1.348;2023-05-10T12:40:23;4.20;;;0.70;;
80307;SDS011;69616;43.522;1.348;2023-05-10T12:42:48;7.27;;;0.90;;
80307;SDS011;69616;43.522;1.348;2023-05-10T12:45:14;6.90;;;0.70;;
80307;SDS011;69616;43.522;1.348;2023-05-10T12:47:39;3.95;;;0.50;;
80307;SDS011;69616;43.522;1.348;2023-05-10T12:50:05;5.73;;;0.80;;
80307;SDS011;69616;43.522;1.348;2023-05-10T12:52:31;5.78;;;0.85;;
80307;SDS011;69616;43.522;1.348;2023-05-10T12:54:57;7.53;;;0.70;;
80307;SDS011;69616;43.522;1.348;2023-05-10T12:57:24;6.70;;;0.90;;
80307;SDS011;69616;43.522;1.348;2023-05-10T12:59:50;4.93;;;0.70;;
80307;SDS011;69616;43.522;1.348;2023-05-10T13:02:15;7.33;;;1.00;;
80307;SDS011;69616;43.522;1.348;2023-05-10T13:04:43;7.60;;;0.80;;
80307;SDS011;69616;43.522;1.348;2023-05-10T13:07:09;6.40;;;1.05;;
80307;SDS011;69616;43.522;1.348;2023-05-10T13:09:34;4.25;;;0.90;;
80307;SDS011;69616;43.522;1.348;2023-05-10T13:12:00;4.73;;;0.70;;
80307;SDS011;69616;43.522;1.348;2023-05-10T13:14:26;5.97;;;0.77;;
80307;SDS011;69616;43.522;1.348;2023-05-10T13:16:51;5.13;;;0.80;;
80307;SDS011;69616;43.522;1.348;2023-05-10T13:19:17;5.33;;;0.90;;
80307;SDS011;69616;43.522;1.348;2023-05-10T13:21:42;5.20;;;0.90;;
80307;SDS011;69616;43.522;1.348;2023-05-10T13:24:09;9.63;;;1.02;;
80307;SDS011;69616;43.522;1.348;2023-05-10T13:26:35;4.70;;;0.70;;
80307;SDS011;69616;43.522;1.348;2023-05-10T13:29:01;5.75;;;0.60;;
80307;SDS011;69616;43.522;1.348;2023-05-10T13:31:27;8.40;;;0.88;;
80307;SDS011;69616;43.522;1.348;2023-05-10T13:33:53;8.73;;;1.00;;
80307;SDS011;69616;43.522;1.348;2023-05-10T13:36:18;6.83;;;1.10;;
80307;SDS011;69616;43.522;1.348;2023-05-10T13:38:43;5.50;;;1.17;;
80307;SDS011;69616;43.522;1.348;2023-05-10T13:41:09;7.97;;;1.17;;
80307;SDS011;69616;43.522;1.348;2023-05-10T13:43:35;6.60;;;1.07;;
80307;SDS011;69616;43.522;1.348;2023-05-10T13:46:01;8.20;;;1.10;;
80307;SDS011;69616;43.522;1.348;2023-05-10T13:48:26;8.03;;;1.00;;
80307;SDS011;69616;43.522;1.348;2023-05-10T13:50:52;7.80;;;1.00;;
80307;SDS011;69616;43.522;1.348;2023-05-10T13:53:17;6.37;;;0.93;;
80307;SDS011;69616;43.522;1.348;2023-05-10T13:55:43;9.27;;;1.67;;
80307;SDS011;69616;43.522;1.348;2023-05-10T13:58:08;9.05;;;1.33;;
80307;SDS011;69616;43.522;1.348;2023-05-10T14:00:34;12.50;;;1.80;;
80307;SDS011;69616;43.522;1.348;2023-05-10T14:02:59;6.83;;;1.10;;
80307;SDS011;69616;43.522;1.348;2023-05-10T14:05:25;6.35;;;0.93;;
80307;SDS011;69616;43.522;1.348;2023-05-10T14:07:50;7.73;;;1.20;;
80307;SDS011;69616;43.522;1.348;2023-05-10T14:10:16;9.40;;;1.20;;
80307;SDS011;69616;43.522;1.348;2023-05-10T14:12:41;7.75;;;1.20;;
80307;SDS011;69616;43.522;1.348;2023-05-10T14:15:07;11.27;;;1.50;;
80307;SDS011;69616;43.522;1.348;2023-05-10T14:17:33;8.63;;;1.20;;
80307;SDS011;69616;43.522;1.348;2023-05-10T14:19:58;9.07;;;1.30;;
80307;SDS011;69616;43.522;1.348;2023-05-10T14:22:23;7.97;;;1.20;;
80307;SDS011;69616;43.522;1.348;2023-05-10T14:24:49;11.20;;;1.27;;
80307;SDS011;69616;43.522;1.348;2023-05-10T14:27:15;12.60;;;1.58;;
80307;SDS011;69616;43.522;1.348;2023-05-10T14:29:40;5.80;;;0.90;;
80307;SDS011;69616;43.522;1.348;2023-05-10T14:32:06;9.75;;;1.20;;
80307;SDS011;69616;43.522;1.348;2023-05-10T14:34:32;7.73;;;1.10;;
80307;SDS011;69616;43.522;1.348;2023-05-10T14:36:58;9.98;;;1.50;;
80307;SDS011;69616;43.522;1.348;2023-05-10T14:39:23;7.75;;;1.48;;
80307;SDS011;69616;43.522;1.348;2023-05-10T14:41:49;7.27;;;1.43;;
80307;SDS011;69616;43.522;1.348;2023-05-10T14:44:16;7.90;;;1.27;;
80307;SDS011;69616;43.522;1.348;2023-05-10T14:46:41;10.70;;;1.27;;
80307;SDS011;69616;43.522;1.348;2023-05-10T14:49:07;9.90;;;1.60;;
80307;SDS011;69616;43.522;1.348;2023-05-10T14:51:34;9.53;;;1.40;;
80307;SDS011;69616;43.522;1.348;2023-05-10T14:54:01;9.88;;;1.45;;
80307;SDS011;69616;43.522;1.348;2023-05-10T14:56:27;9.13;;;1.15;;
80307;SDS011;69616;43.522;1.348;2023-05-10T14:58:52;8.00;;;1.17;;
80307;SDS011;69616;43.522;1.348;2023-05-10T15:01:18;8.50;;;1.23;;
80307;SDS011;69616;43.522;1.348;2023-05-10T15:03:44;7.63;;;1.35;;
80307;SDS011;69616;43.522;1.348;2023-05-10T15:06:09;9.13;;;1.00;;
80307;SDS011;69616;43.522;1.348;2023-05-10T15:08:35;9.20;;;1.25;;
80307;SDS011;69616;43.522;1.348;2023-05-10T15:11:01;11.23;;;1.27;;
80307;SDS011;69616;43.522;1.348;2023-05-10T15:13:26;10.67;;;1.50;;